Time;durP1;ratioP1;P1;durP2;ratioP2;P2;SDS_P1;SDS_P2;PMS_P1;PMS_P2;Temp;Humidity;BMP_temperature;BMP_pressure;BME280_temperature;BME280_humidity;BME280_pressure;Samples;Min_cycle;Max_cycle;Signal;HPM_P1;HPM_P2
2022/12/28 00:02:22;;;;;;;;;51.00;44.00;;;;;1.59;88.83;100874.00;6275665;20;2508696;-50
2022/12/28 00:04:50;;;;;;;;;53.50;44.00;;;;;1.67;88.57;100873.06;6281374;20;2876375;-55
2022/12/28 00:07:19;;;;;;;;;48.00;41.50;;;;;1.57;88.92;100866.06;6286816;20;2864911;-53
2022/12/28 00:09:48;;;;;;;;;42.50;39.50;;;;;1.59;89.13;100863.41;6284291;20;2842084;-51
2022/12/28 00:12:17;;;;;;;;;58.67;44.00;;;;;1.68;88.40;100863.34;6286343;20;2883698;-51
2022/12/28 00:14:47;;;;;;;;;54.00;43.33;;;;;1.62;88.59;100858.09;6315205;20;2876332;-51
2022/12/28 00:17:15;;;;;;;;;58.50;47.00;;;;;1.41;89.44;100854.69;6315179;20;2851361;-54
2022/12/28 00:19:45;;;;;;;;;55.33;43.67;;;;;1.54;89.02;100855.50;6285096;20;2872183;-52
2022/12/28 00:22:14;;;;;;;;;45.00;39.50;;;;;1.55;89.14;100859.88;6318356;20;2864886;-54
2022/12/28 00:24:42;;;;;;;;;43.00;40.00;;;;;1.54;89.66;100863.44;6285072;20;2858617;-52
2022/12/28 00:27:11;;;;;;;;;50.50;39.50;;;;;1.57;89.06;100858.13;6281554;20;2870167;-52
2022/12/28 00:29:40;;;;;;;;;39.00;34.00;;;;;1.62;89.00;100858.97;6285492;20;2853830;-52
2022/12/28 00:32:09;;;;;;;;;44.00;41.00;;;;;1.60;89.03;100860.75;6284499;20;2860698;-55
2022/12/28 00:34:37;;;;;;;;;62.00;49.00;;;;;1.57;88.67;100866.06;6286442;20;2864911;-53
2022/12/28 00:37:06;;;;;;;;;63.00;50.00;;;;;1.35;89.94;100873.25;6284192;20;2859743;-52
2022/12/28 00:39:42;;;;;;;;;65.00;48.00;;;;;1.34;90.12;100868.81;6281970;20;2873303;-51
2022/12/28 00:42:10;;;;;;;;;61.00;49.50;;;;;1.29;90.12;100870.59;6281540;20;2500408;-54
2022/12/28 00:44:39;;;;;;;;;60.50;47.50;;;;;1.39;90.23;100869.69;6280784;20;2489883;-54
2022/12/28 00:47:08;;;;;;;;;70.67;53.00;;;;;1.48;89.72;100882.00;6282970;20;2884814;-54
2022/12/28 00:49:37;;;;;;;;;60.50;47.50;;;;;1.39;89.71;100882.91;6315311;20;2852544;-55
2022/12/28 00:52:07;;;;;;;;;64.00;51.67;;;;;1.28;89.80;100877.66;6285434;20;2863925;-51
2022/12/28 00:54:35;;;;;;;;;70.50;53.00;;;;;1.27;90.64;100888.28;6316699;20;2871169;-53
2022/12/28 00:57:03;;;;;;;;;61.50;48.00;;;;;1.18;90.91;100877.72;6278741;20;2510736;-50
2022/12/28 00:59:32;;;;;;;;;65.00;51.00;;;;;1.18;91.42;100888.31;6282462;20;2871188;-51
2022/12/28 01:02:02;;;;;;;;;62.33;47.00;;;;;1.12;91.37;100890.97;6287119;20;2889946;-48
2022/12/28 01:04:31;;;;;;;;;60.00;48.00;;;;;1.14;91.30;100887.44;6316552;20;2853415;-56
2022/12/28 01:06:58;;;;;;;;;61.50;49.00;;;;;0.74;92.86;100890.22;6281488;20;2500372;-54
2022/12/28 01:09:27;;;;;;;;;54.50;43.00;;;;;0.71;93.59;100889.31;6278168;20;2873200;-56
2022/12/28 01:11:56;;;;;;;;;53.50;44.00;;;;;0.89;93.54;100889.28;6281718;20;2868067;-54
2022/12/28 01:14:25;;;;;;;;;60.67;47.67;;;;;0.83;93.01;100890.16;6284290;20;2878843;-53
2022/12/28 01:16:55;;;;;;;;;58.67;46.00;;;;;0.82;93.99;100887.56;6314909;20;2879744;-51
2022/12/28 01:19:24;;;;;;;;;57.50;44.50;;;;;0.72;94.34;100888.44;6314221;20;2857577;-51
2022/12/28 01:21:53;;;;;;;;;61.50;45.50;;;;;0.63;94.04;100892.88;6285590;20;2877323;-55
2022/12/28 01:24:22;;;;;;;;;63.50;50.50;;;;;0.80;93.95;100891.94;6282065;20;2853432;-53
2022/12/28 01:26:51;;;;;;;;;64.33;47.00;;;;;0.74;93.43;100891.94;6282918;20;2885781;-54
2022/12/28 01:29:21;;;;;;;;;60.00;44.00;;;;;0.74;93.43;100895.50;6313818;20;2886727;-54
2022/12/28 01:31:50;;;;;;;;;48.00;36.67;;;;;0.71;93.79;100886.66;6315004;20;3636803;-52
2022/12/28 01:34:19;;;;;;;;;48.00;40.50;;;;;0.76;93.54;100888.41;6313360;20;2858659;-52
2022/12/28 01:36:48;;;;;;;;;50.33;42.33;;;;;0.78;93.19;100885.78;6285400;20;2866948;-53
2022/12/28 01:39:18;;;;;;;;;47.33;39.67;;;;;0.69;93.51;100883.16;6310906;20;2865990;-54
2022/12/28 01:41:47;;;;;;;;;48.50;41.50;;;;;0.78;93.56;100884.00;6316354;20;2865948;-52
2022/12/28 01:44:14;;;;;;;;;50.00;43.00;;;;;0.73;94.57;100883.13;6279572;20;2468094;-52
2022/12/28 01:46:59;;;;;;;;;62.00;47.50;;;;;0.56;94.73;100893.75;6280624;20;2878592;-50
2022/12/28 01:49:52;;;;;;;;;63.00;48.33;;;;;0.22;95.10;100875.28;6277607;20;2874375;-55
2022/12/28 01:52:42;;;;;;;;;56.50;44.00;;;;;0.36;95.49;100880.53;6311855;20;2877369;-50
2022/12/28 01:55:34;;;;;;;;;57.67;41.67;;;;;0.17;96.61;100869.13;6280816;20;3630477;-51
2022/12/28 01:58:23;;;;;;;;;56.00;42.67;;;;;0.25;96.87;100865.59;6309742;20;2881138;-53
2022/12/28 02:00:53;;;;;;;;;54.00;40.67;;;;;0.40;96.57;100861.19;6314548;20;2889965;-54
2022/12/28 02:03:28;;;;;;;;;49.50;42.50;;;;;0.48;96.72;100869.09;6313647;20;2861842;-52
2022/12/28 02:06:03;;;;;;;;;44.00;41.00;;;;;0.50;96.26;100856.78;6279274;20;2506529;-55
2022/12/28 02:09:03;;;;;;;;;47.33;38.67;;;;;0.60;96.13;100857.63;6279589;20;2879593;-55
2022/12/28 02:11:32;;;;;;;;;50.50;42.00;;;;;0.58;95.81;100857.66;6309824;20;2854479;-49
2022/12/28 02:14:02;;;;;;;;;43.00;38.50;;;;;0.67;95.27;100855.84;6279319;20;2860711;-51
2022/12/28 02:16:31;;;;;;;;;38.00;35.00;;;;;0.76;95.39;100853.19;6280081;20;2848235;-53
2022/12/28 02:18:59;;;;;;;;;44.00;33.00;;;;;0.95;94.71;100851.34;6277987;20;2500318;-52
2022/12/28 02:21:50;;;;;;;;;41.00;34.50;;;;;0.90;94.32;100851.38;6278340;20;2500292;-55
2022/12/28 02:25:06;;;;;;;;;39.50;33.50;;;;;0.97;93.85;100847.81;6279868;20;2864892;-50
2022/12/28 02:28:22;;;;;;;;;38.50;34.00;;;;;1.13;93.33;100845.13;6270642;20;2500407;-51
2022/12/28 02:31:39;;;;;;;;;36.00;35.00;;;;;0.98;93.27;100849.59;6279205;20;2500307;-54
2022/12/28 02:34:24;;;;;;;;;37.00;30.50;;;;;1.10;92.89;100841.59;6276562;20;2508725;-53
2022/12/28 02:37:16;;;;;;;;;37.50;29.50;;;;;0.96;93.25;100831.97;6280307;20;2861765;-53
2022/12/28 02:39:57;;;;;;;;;43.33;33.00;;;;;1.09;93.11;100850.44;6278552;20;2877463;-53
2022/12/28 02:42:28;;;;;;;;;37.50;33.00;;;;;1.13;92.67;100853.06;6311634;20;2848197;-51
2022/12/28 02:51:06;;;;;;;;;37.50;35.00;;;;;0.75;93.57;100847.03;6278453;20;2856556;-50
2022/12/28 02:54:00;;;;;;;;;45.50;34.00;;;;;0.93;94.05;100845.22;6280350;20;2882566;-56
2022/12/28 02:56:55;;;;;;;;;41.50;35.50;;;;;0.95;93.53;100854.91;6281255;20;2873275;-56
2022/12/28 02:59:54;;;;;;;;;40.67;33.33;;;;;0.94;93.25;100862.81;6275576;20;2862272;-54
2022/12/28 03:03:27;;;;;;;;;38.50;33.00;;;;;0.87;93.54;100868.16;6305610;20;2860271;-56
2022/12/28 03:10:24;;;;;;;;;43.00;36.50;;;;;0.68;94.41;100861.13;6278699;20;2863943;-56
2022/12/28 03:13:41;;;;;;;;;41.50;40.00;;;;;0.79;93.93;100858.44;6282540;20;2865986;-54
2022/12/28 03:16:06;;;;;;;;;19.33;19.33;;;;;0.80;93.84;100854.94;6278279;20;3553419;-54
2022/12/28 03:33:00;;;;;;;;;43.00;38.50;;;;;0.86;94.08;100839.06;6308089;20;2872343;-53
2022/12/28 03:36:15;;;;;;;;;39.00;30.50;;;;;0.84;94.20;100840.81;6279456;20;2854494;-55
2022/12/28 03:39:32;;;;;;;;;43.50;37.50;;;;;0.69;94.63;100835.59;6279913;20;2858629;-53
2022/12/28 03:45:38;;;;;;;;;47.33;37.33;;;;;0.86;94.53;100833.75;6284743;20;2877586;-51
2022/12/28 03:48:16;;;;;;;;;40.00;34.00;;;;;0.91;94.21;100836.41;6315394;20;2856646;-52
2022/12/28 03:50:48;;;;;;;;;42.00;35.00;;;;;0.87;94.24;100832.91;6279045;20;2869110;-54
2022/12/28 03:53:25;;;;;;;;;40.50;33.00;;;;;0.82;94.38;100832.91;6284990;20;2862773;-56
2022/12/28 03:56:20;;;;;;;;;60.50;48.00;;;;;0.67;94.39;100835.59;6283779;20;2852484;-54
2022/12/28 03:58:51;;;;;;;;;61.00;45.00;;;;;0.70;94.85;100840.00;6283847;20;2863965;-51
2022/12/28 04:01:21;;;;;;;;;47.50;40.00;;;;;0.78;94.86;100828.50;6287500;20;2862831;-51
2022/12/28 04:03:49;;;;;;;;;70.00;54.50;;;;;0.87;94.62;100832.91;6281958;20;2500355;-53
2022/12/28 04:06:20;;;;;;;;;85.00;66.00;;;;;0.76;94.45;100822.34;6284129;20;3641968;-53
2022/12/28 04:08:49;;;;;;;;;84.50;65.00;;;;;0.74;94.69;100818.84;6315914;20;2885728;-54
2022/12/28 04:11:18;;;;;;;;;78.00;57.33;;;;;0.75;94.32;100822.34;6285750;20;3643028;-55
2022/12/28 04:13:48;;;;;;;;;26.67;16.00;;;;;0.50;95.28;100829.44;6339721;20;2847240;-53
2022/12/28 04:16:17;;;;;;;;;68.50;55.00;;;;;0.69;95.27;100827.66;6315620;20;2865903;-54
2022/12/28 04:18:46;;;;;;;;;72.00;57.50;;;;;0.61;95.26;100823.28;6286099;20;2875328;-55
2022/12/28 04:21:15;;;;;;;;;71.50;57.00;;;;;0.49;95.31;100823.28;6284163;20;2860708;-54
2022/12/28 04:23:43;;;;;;;;;65.50;49.00;;;;;0.53;95.53;100819.78;6280624;20;2500329;-51
2022/12/28 04:26:16;;;;;;;;;70.67;55.00;;;;;0.31;95.89;100820.69;6282238;20;2880522;-54
2022/12/28 04:28:45;;;;;;;;;65.00;51.50;;;;;0.32;96.70;100817.19;6314913;20;2869192;-52
2022/12/28 04:31:13;;;;;;;;;66.00;49.00;;;;;0.39;96.32;100810.97;6282450;20;2492133;-52
2022/12/28 04:33:41;;;;;;;;;65.50;52.00;;;;;0.03;96.68;100804.88;6280570;20;2500239;-52
2022/12/28 04:36:15;;;;;;;;;62.00;49.00;;;;;-0.10;97.13;100801.38;6280948;20;2493043;-56
2022/12/28 04:38:44;;;;;;;;;54.50;45.00;;;;;-0.38;97.39;100789.91;6284277;20;2874301;-53
2022/12/28 04:41:13;;;;;;;;;47.50;44.00;;;;;-0.54;99.35;100798.69;6282931;20;2865994;-53
2022/12/28 04:43:42;;;;;;;;;64.33;49.00;;;;;-0.57;100.00;100799.56;6285438;20;2880472;-54
2022/12/28 04:46:17;;;;;;;;;69.00;53.00;;;;;-0.42;99.67;100798.72;6315431;20;3627353;-54
2022/12/28 04:48:45;;;;;;;;;67.50;52.50;;;;;-0.59;100.00;100792.53;6310031;20;2492995;-50
2022/12/28 04:51:20;;;;;;;;;66.00;50.00;;;;;-0.90;100.00;100789.81;6280268;20;2861108;-55
2022/12/28 04:53:49;;;;;;;;;66.00;51.00;;;;;-0.77;100.00;100780.19;6279732;20;2473267;-50
2022/12/28 04:56:21;;;;;;;;;73.00;58.50;;;;;-0.59;100.00;100782.84;6283567;20;2873309;-54
2022/12/28 04:58:59;;;;;;;;;80.67;60.00;;;;;-0.78;100.00;100781.06;6284124;20;3647183;-51
2022/12/28 05:01:29;;;;;;;;;83.00;62.67;;;;;-0.90;100.00;100777.50;6311703;20;3642993;-55
2022/12/28 05:03:59;;;;;;;;;80.33;61.33;;;;;-0.59;100.00;100779.34;6314015;20;3642044;-50
2022/12/28 05:06:28;;;;;;;;;73.00;58.50;;;;;-0.60;100.00;100786.38;6311978;20;2500310;-50
2022/12/28 05:08:57;;;;;;;;;66.50;47.50;;;;;-0.57;100.00;100793.41;6279230;20;2509703;-50
2022/12/28 05:11:28;;;;;;;;;18.00;8.00;;;;;-0.50;100.00;100800.44;6279962;20;2787784;-51
2022/12/28 05:13:57;;;;;;;;;57.50;45.50;;;;;-0.67;100.00;100796.03;6281020;20;2871087;-53
2022/12/28 05:16:29;;;;;;;;;64.00;50.50;;;;;-0.68;100.00;100801.31;6282870;20;2849436;-50
2022/12/28 05:18:58;;;;;;;;;72.50;58.00;;;;;-0.59;100.00;100806.59;6280442;20;2870132;-54
2022/12/28 05:21:28;;;;;;;;;100.33;73.00;;;;;-0.78;100.00;100800.41;6282733;20;2908692;-54
2022/12/28 05:23:58;;;;;;;;;81.33;61.00;;;;;-1.42;100.00;100811.56;6312974;20;2892105;-54
2022/12/28 05:26:29;;;;;;;;;108.00;80.67;;;;;-1.45;100.00;100805.38;6313951;20;3693081;-54
2022/12/28 05:28:58;;;;;;;;;90.00;60.33;;;;;-1.49;100.00;100812.41;6283890;20;3661820;-53
2022/12/28 05:31:28;;;;;;;;;71.33;49.33;;;;;-1.30;100.00;100813.38;6313171;20;2864938;-54
2022/12/28 05:33:57;;;;;;;;;56.00;45.50;;;;;-1.16;100.00;100811.69;6311927;20;2873181;-53
2022/12/28 05:36:27;;;;;;;;;60.00;45.00;;;;;-1.33;100.00;100810.72;6284809;20;3632682;-53
2022/12/28 05:38:56;;;;;;;;;42.00;32.50;;;;;-1.24;100.00;100805.50;6313739;20;2870580;-53
2022/12/28 05:41:28;;;;;;;;;52.00;42.00;;;;;-1.19;100.00;100800.25;6280593;20;2870084;-49
2022/12/28 05:43:58;;;;;;;;;57.00;44.00;;;;;-1.12;100.00;100813.47;6276490;20;2862851;-49
2022/12/28 05:46:31;;;;;;;;;41.00;38.00;;;;;-1.12;100.00;100809.94;6283838;20;2859622;-52
2022/12/28 05:49:01;;;;;;;;;74.50;55.50;;;;;-1.31;100.00;100808.13;6283814;20;2879475;-54
2022/12/28 05:51:32;;;;;;;;;81.33;59.00;;;;;-1.19;100.00;100803.75;6280187;20;2885733;-54
2022/12/28 05:54:05;;;;;;;;;56.00;44.00;;;;;-1.37;100.00;100801.03;6311630;20;2880516;-53
2022/12/28 05:56:34;;;;;;;;;48.00;42.00;;;;;-1.45;100.00;100797.50;6277097;20;2879614;-53
2022/12/28 05:59:06;;;;;;;;;53.00;45.00;;;;;-1.41;100.00;100796.66;6281620;20;2863838;-51
2022/12/28 06:01:41;;;;;;;;;48.50;42.00;;;;;-1.09;100.00;100803.81;6275726;20;2871113;-55
2022/12/28 06:04:20;;;;;;;;;43.50;38.00;;;;;-1.15;100.00;100805.53;6277382;20;2864928;-51
2022/12/28 06:06:48;;;;;;;;;47.00;41.00;;;;;-1.07;100.00;100807.34;6279976;20;2502471;-52
2022/12/28 06:09:18;;;;;;;;;46.00;36.00;;;;;-1.36;100.00;100808.09;6281968;20;2878490;-52
2022/12/28 06:11:47;;;;;;;;;53.50;42.00;;;;;-0.95;100.00;100810.00;6314269;20;2877397;-53
2022/12/28 06:14:15;;;;;;;;;46.00;42.50;;;;;-1.08;100.00;100805.56;6280439;20;2498245;-52
2022/12/28 06:16:44;;;;;;;;;64.00;45.00;;;;;-1.32;100.00;100807.22;6283383;20;3645073;-50
2022/12/28 06:19:14;;;;;;;;;55.00;44.50;;;;;-1.19;100.00;100810.78;6313909;20;2877377;-51
2022/12/28 06:21:43;;;;;;;;;67.00;50.00;;;;;-1.63;100.00;100820.22;6281919;20;2873269;-55
2022/12/28 06:24:13;;;;;;;;;85.33;63.33;;;;;-1.61;100.00;100817.59;6282385;20;2901443;-53
2022/12/28 06:26:42;;;;;;;;;69.50;58.50;;;;;-1.57;100.00;100811.47;6311145;20;2852590;-54
2022/12/28 06:29:11;;;;;;;;;80.00;60.50;;;;;-1.40;100.00;100814.19;6280345;20;2908677;-53
2022/12/28 06:31:50;;;;;;;;;68.00;56.00;;;;;-1.21;100.00;100808.16;6277615;20;2852453;-54
2022/12/28 06:34:18;;;;;;;;;67.50;49.00;;;;;-1.32;100.00;100817.75;6277755;20;2508636;-52
2022/12/28 06:36:51;;;;;;;;;66.50;49.00;;;;;-1.35;100.00;100834.41;6283487;20;2862786;-54
2022/12/28 06:39:20;;;;;;;;;68.00;49.50;;;;;-1.31;100.00;100824.81;6280289;20;2879502;-51
2022/12/28 06:41:49;;;;;;;;;71.00;51.00;;;;;-1.52;100.00;100827.31;6278698;20;2865948;-50
2022/12/28 06:44:17;;;;;;;;;66.00;51.00;;;;;-1.32;100.00;100820.38;6278667;20;2500303;-51
2022/12/28 06:46:46;;;;;;;;;67.50;54.50;;;;;-1.29;100.00;100815.16;6280171;20;2863865;-52
2022/12/28 06:49:14;;;;;;;;;70.50;53.50;;;;;-1.12;100.00;100821.38;6281073;20;2863907;-50
2022/12/28 06:51:43;;;;;;;;;76.00;58.00;;;;;-1.08;100.00;100824.88;6281241;20;2857701;-52
2022/12/28 06:54:13;;;;;;;;;85.00;62.67;;;;;-0.97;100.00;100824.94;6280422;20;2892092;-53
2022/12/28 06:56:41;;;;;;;;;75.50;59.00;;;;;-0.94;100.00;100824.97;6311403;20;2879488;-54
2022/12/28 06:59:11;;;;;;;;;93.67;72.00;;;;;-0.81;100.00;100825.88;6278616;20;2896317;-52
2022/12/28 07:01:43;;;;;;;;;80.67;54.33;;;;;-0.76;100.00;100827.66;6307460;20;3617026;-53
2022/12/28 07:04:13;;;;;;;;;112.00;83.33;;;;;-0.74;100.00;100830.28;6277202;20;3704443;-55
2022/12/28 07:06:43;;;;;;;;;99.00;71.00;;;;;-0.59;100.00;100824.19;6280775;20;3658644;-54
2022/12/28 07:09:15;;;;;;;;;93.33;68.00;;;;;-0.47;100.00;100826.84;6309009;20;3652442;-53
2022/12/28 07:11:48;;;;;;;;;86.33;62.67;;;;;-0.41;100.00;100820.69;6313926;20;2899349;-53
2022/12/28 07:14:18;;;;;;;;;71.33;56.33;;;;;-0.48;100.00;100825.06;6308432;20;2890002;-54
2022/12/28 07:16:48;;;;;;;;;70.00;53.50;;;;;-0.42;100.00;100830.38;6312405;20;2865949;-51
2022/12/28 07:19:17;;;;;;;;;67.75;53.75;;;;;-0.36;100.00;100834.78;6277725;20;3613909;-52
2022/12/28 07:21:45;;;;;;;;;64.50;48.50;;;;;-0.18;100.00;100847.13;6305359;20;2448178;-55
2022/12/28 07:24:13;;;;;;;;;72.00;55.00;;;;;-0.13;100.00;100838.31;6281648;20;2492987;-52
2022/12/28 07:26:43;;;;;;;;;64.67;48.33;;;;;0.14;100.00;100841.84;6281323;20;2894298;-52
2022/12/28 07:29:13;;;;;;;;;84.00;64.00;;;;;0.19;100.00;100851.53;6310918;20;2893085;-54
2022/12/28 07:31:42;;;;;;;;;90.67;67.67;;;;;0.43;99.36;100844.44;6314081;20;3656663;-53
2022/12/28 07:34:14;;;;;;;;;83.00;60.67;;;;;0.22;100.00;100846.22;6307800;20;2894527;-54
2022/12/28 07:36:44;;;;;;;;;72.33;54.67;;;;;0.21;100.00;100843.56;6312344;20;2872227;-56
2022/12/28 07:39:13;;;;;;;;;73.00;58.50;;;;;0.46;99.45;100848.84;6309554;20;2877610;-56
2022/12/28 07:41:43;;;;;;;;;65.00;50.67;;;;;0.44;99.11;100854.13;6281432;20;2873628;-54
2022/12/28 07:44:11;;;;;;;;;65.50;49.50;;;;;0.71;99.04;100849.66;6306915;20;2442171;-52
2022/12/28 07:46:40;;;;;;;;;61.00;49.00;;;;;0.64;98.91;100844.41;6278232;20;2869018;-54
2022/12/28 07:49:08;;;;;;;;;63.00;48.50;;;;;0.94;97.78;100837.25;6274220;20;2500291;-56
2022/12/28 07:51:38;;;;;;;;;69.00;51.00;;;;;1.21;96.63;100840.66;6279775;20;2884642;-55
2022/12/28 07:54:06;;;;;;;;;59.00;48.00;;;;;1.40;95.64;100836.19;6274328;20;2495106;-56
2022/12/28 07:56:35;;;;;;;;;54.00;45.00;;;;;1.58;94.36;100830.78;6280367;20;2864896;-56
2022/12/28 07:59:05;;;;;;;;;61.33;47.00;;;;;1.82;93.70;100829.72;6280447;20;3604490;-56
2022/12/28 08:01:36;;;;;;;;;56.50;46.00;;;;;1.72;94.55;100828.03;6279039;20;2848135;-55
2022/12/28 08:04:10;;;;;;;;;57.00;46.00;;;;;1.87;94.37;100827.03;6278275;20;2688855;-56
2022/12/28 08:06:41;;;;;;;;;60.50;49.50;;;;;1.90;93.62;100822.59;6305861;20;2861744;-55
2022/12/28 08:09:13;;;;;;;;;64.50;50.00;;;;;1.80;92.82;100825.34;6278247;20;2885745;-54
2022/12/28 08:11:45;;;;;;;;;110.00;87.00;;;;;1.33;93.92;100830.03;6277823;20;3696339;-54
2022/12/28 08:14:15;;;;;;;;;84.00;63.67;;;;;1.54;94.30;100829.91;6277107;20;3636828;-50
2022/12/28 08:16:44;;;;;;;;;77.33;57.33;;;;;1.75;93.25;100830.66;6310526;20;3638952;-53
2022/12/28 08:19:14;;;;;;;;;89.67;66.33;;;;;1.72;94.10;100828.91;6310994;20;3650278;-56
2022/12/28 08:21:45;;;;;;;;;86.00;63.33;;;;;2.15;92.36;100828.56;6309599;20;3665878;-56
2022/12/28 08:24:18;;;;;;;;;81.67;57.33;;;;;2.25;91.39;100837.31;6310760;20;3651294;-56
2022/12/28 08:26:48;;;;;;;;;88.00;67.00;;;;;2.13;91.72;100840.06;6314682;20;2878561;-56
2022/12/28 08:29:21;;;;;;;;;79.00;60.33;;;;;2.37;91.22;100845.16;6316326;20;3631590;-54
2022/12/28 08:31:51;;;;;;;;;79.33;60.00;;;;;2.17;91.93;100847.09;6315003;20;2875329;-55
2022/12/28 08:34:25;;;;;;;;;83.33;64.33;;;;;2.46;91.40;100843.31;6314503;20;3637830;-55
2022/12/28 08:36:56;;;;;;;;;78.00;58.67;;;;;2.45;91.61;100846.84;6313611;20;3646245;-55
2022/12/28 08:39:28;;;;;;;;;94.33;76.00;;;;;2.54;91.16;100846.78;6281542;20;3654556;-54
2022/12/28 08:41:58;;;;;;;;;109.33;92.00;;;;;2.44;91.99;100851.28;6316865;20;3704428;-56
2022/12/28 08:44:27;;;;;;;;;100.33;86.33;;;;;2.69;90.84;100843.97;6279794;20;3680471;-55
2022/12/28 08:46:57;;;;;;;;;104.33;94.00;;;;;2.49;91.37;100843.28;6278567;20;3680431;-54
2022/12/28 08:49:27;;;;;;;;;96.33;78.33;;;;;2.73;90.53;100832.41;6280813;20;3669044;-53
2022/12/28 08:51:57;;;;;;;;;131.00;110.75;;;;;2.76;91.29;100826.19;6282878;20;3706638;-55
2022/12/28 08:54:27;;;;;;;;;100.67;83.33;;;;;2.60;92.65;100820.19;6310166;20;3685848;-53
2022/12/28 08:56:57;;;;;;;;;102.67;84.67;;;;;3.12;92.15;100832.84;6283076;20;3679474;-53
2022/12/28 08:59:26;;;;;;;;;88.67;71.33;;;;;2.91;92.75;100827.81;6279115;20;3655460;-54
2022/12/28 09:01:56;;;;;;;;;88.33;69.33;;;;;2.93;92.66;100823.38;6314606;20;3657625;-54
2022/12/28 09:04:25;;;;;;;;;95.67;78.00;;;;;3.58;91.21;100818.97;6315407;20;3672150;-51
2022/12/28 09:06:55;;;;;;;;;90.67;72.67;;;;;4.08;88.69;100819.94;6284926;20;3672222;-55
2022/12/28 09:09:25;;;;;;;;;87.67;69.00;;;;;3.83;88.10;100824.75;6284334;20;3656545;-54
2022/12/28 09:11:54;;;;;;;;;81.67;62.33;;;;;4.27;88.51;100824.94;6279794;20;3639899;-51
2022/12/28 09:14:24;;;;;;;;;82.33;62.00;;;;;4.36;87.36;100824.78;6313381;20;3659687;-55
2022/12/28 09:16:53;;;;;;;;;67.00;52.00;;;;;4.55;86.27;100822.66;6283684;20;2887803;-53
2022/12/28 09:19:23;;;;;;;;;50.33;42.67;;;;;4.86;84.93;100814.97;6280188;20;2858776;-50
2022/12/28 09:21:54;;;;;;;;;51.67;40.33;;;;;4.65;85.08;100815.38;6312715;20;2869086;-54
2022/12/28 09:24:23;;;;;;;;;48.33;39.33;;;;;4.93;85.20;100821.91;6314520;20;2879483;-55
2022/12/28 09:26:54;;;;;;;;;38.00;34.67;;;;;4.91;84.71;100826.38;6313714;20;3583614;-50
2022/12/28 09:29:22;;;;;;;;;27.50;27.00;;;;;5.07;82.91;100822.50;6310683;20;2846233;-50
2022/12/28 09:31:52;;;;;;;;;47.33;37.00;;;;;5.49;83.11;100817.16;6281607;20;3613797;-49
2022/12/28 09:34:21;;;;;;;;;73.33;57.33;;;;;5.39;82.26;100820.06;6310109;20;3631572;-52
2022/12/28 09:37:07;;;;;;;;;46.50;40.00;;;;;5.54;81.29;100819.72;6313044;20;2853489;-51
2022/12/28 09:39:37;;;;;;;;;51.67;40.00;;;;;5.87;81.08;100817.19;6282246;20;2876366;-54
2022/12/28 09:42:16;;;;;;;;;41.00;36.67;;;;;5.94;80.79;100813.50;6319408;20;3604400;-52
2022/12/28 09:44:59;;;;;;;;;34.33;29.33;;;;;6.14;79.17;100807.69;6281247;20;2857786;-52
2022/12/28 09:47:48;;;;;;;;;36.33;33.00;;;;;6.38;80.83;100799.03;6313142;20;3603350;-54
2022/12/28 09:50:18;;;;;;;;;57.33;45.33;;;;;7.04;75.03;100796.31;6276890;20;2859847;-56
2022/12/28 09:53:22;;;;;;;;;35.50;28.50;;;;;6.73;74.10;100801.66;6308732;20;2848171;-55
2022/12/28 09:55:57;;;;;;;;;25.00;23.50;;;;;6.69;73.15;100792.88;6279271;20;2500407;-55
2022/12/28 09:58:29;;;;;;;;;19.67;17.67;;;;;6.55;73.25;100789.69;6283319;20;3558671;-51
2022/12/28 10:01:00;;;;;;;;;12.50;11.00;;;;;6.42;73.04;100783.81;6285505;20;2791951;-53
2022/12/28 10:03:39;;;;;;;;;21.33;13.33;;;;;6.61;72.24;100784.22;6279053;20;3555589;-56
2022/12/28 10:06:16;;;;;;;;;14.00;10.00;;;;;6.96;71.17;100779.66;6309468;20;2731530;-53
2022/12/28 10:09:00;;;;;;;;;8.67;6.00;;;;;6.81;71.11;100780.97;6287863;20;3444098;-52
2022/12/28 10:11:38;;;;;;;;;9.00;9.00;;;;;6.59;71.83;100770.03;6279720;20;2728427;-53
2022/12/28 10:14:34;;;;;;;;;7.00;7.00;;;;;6.72;71.81;100763.44;6313995;20;2748223;-53
2022/12/28 10:17:05;;;;;;;;;7.00;7.00;;;;;6.66;70.89;100752.94;6282815;20;2746376;-56
2022/12/28 10:19:32;;;;;;;;;8.00;7.00;;;;;6.69;70.59;100752.84;6281143;20;2739880;-56
2022/12/28 10:22:12;;;;;;;;;7.00;7.00;;;;;6.66;69.88;100747.59;6332206;20;1793562;-54
2022/12/28 10:24:40;;;;;;;;;8.00;8.00;;;;;6.72;70.59;100747.41;6313500;20;2741938;-52
2022/12/28 10:27:22;;;;;;;;;15.50;11.50;;;;;7.29;68.69;100739.50;6318297;20;2789875;-54
2022/12/28 10:29:53;;;;;;;;;9.00;8.00;;;;;7.07;68.26;100734.81;6282970;20;2741968;-54
2022/12/28 10:32:21;;;;;;;;;7.00;7.00;;;;;7.07;68.18;100742.81;6280643;20;2750544;-52
2022/12/28 10:35:02;;;;;;;;;14.00;12.00;;;;;7.30;67.60;100735.91;6279335;20;2781570;-54
2022/12/28 10:37:35;;;;;;;;;13.50;9.50;;;;;7.11;67.55;100725.81;6278411;20;2781825;-53
2022/12/28 10:40:26;;;;;;;;;14.67;10.67;;;;;7.16;67.64;100723.88;6276554;20;3516429;-54
2022/12/28 10:42:57;;;;;;;;;14.00;10.00;;;;;7.15;68.29;100724.78;6335331;20;2791975;-53
2022/12/28 10:45:39;;;;;;;;;14.00;14.00;;;;;7.24;67.51;100726.28;6305775;20;2808613;-54
2022/12/28 10:48:21;;;;;;;;;9.20;8.80;;;;;7.58;67.58;100731.44;6305721;20;2730517;-53
2022/12/28 10:51:13;;;;;;;;;12.00;11.00;;;;;7.38;67.68;100729.41;6310589;20;2787843;-52
2022/12/28 10:53:50;;;;;;;;;19.00;14.00;;;;;7.64;67.92;100728.56;6283643;20;2821280;-50
2022/12/28 10:56:29;;;;;;;;;14.00;13.00;;;;;8.01;67.04;100726.47;6283158;20;2789854;-55
2022/12/28 10:59:31;;;;;;;;;14.00;10.60;;;;;7.63;66.16;100724.13;6308240;20;2792071;-54
2022/12/28 11:02:28;;;;;;;;;18.00;12.00;;;;;7.51;66.80;100719.19;6277682;20;2798205;-51
2022/12/28 11:05:04;;;;;;;;;10.00;10.00;;;;;7.60;65.49;100724.22;6278688;20;2784732;-54
2022/12/28 11:07:37;;;;;;;;;7.25;7.00;;;;;7.43;65.31;100721.25;6299490;20;1805572;-51
2022/12/28 11:10:24;;;;;;;;;5.75;5.75;;;;;7.45;64.57;100724.72;6326903;20;1816012;-52
2022/12/28 11:12:57;;;;;;;;;7.00;7.00;;;;;7.10;65.34;100729.38;6310332;20;2743161;-54
2022/12/28 11:15:30;;;;;;;;;7.50;7.00;;;;;7.02;65.49;100720.72;6302572;20;1808742;-54
2022/12/28 11:18:19;;;;;;;;;9.00;8.00;;;;;7.19;65.12;100721.09;6306794;20;2737806;-57
2022/12/28 11:20:52;;;;;;;;;10.00;8.00;;;;;7.22;65.87;100721.00;6274436;20;2761717;-59
2022/12/28 11:23:30;;;;;;;;;12.00;9.00;;;;;7.08;66.14;100715.19;6276265;20;2780478;-60
2022/12/28 11:25:59;;;;;;;;;12.50;9.00;;;;;7.10;66.04;100718.69;6277078;20;2760883;-60
2022/12/28 11:28:26;;;;;;;;;14.00;9.00;;;;;7.24;66.22;100721.84;6276431;20;2802371;-60
2022/12/28 11:30:57;;;;;;;;;12.20;8.20;;;;;7.47;66.91;100717.53;6306734;20;2763940;-60
2022/12/28 11:33:45;;;;;;;;;18.00;14.50;;;;;7.40;66.73;100710.66;6311595;20;2821161;-59
2022/12/28 11:36:23;;;;;;;;;17.50;13.00;;;;;7.35;65.47;100709.94;6275358;20;2800482;-59
2022/12/28 11:38:55;;;;;;;;;14.33;12.67;;;;;7.38;66.25;100702.69;6274977;20;2796167;-59
2022/12/28 11:41:23;;;;;;;;;16.33;15.67;;;;;6.77;67.31;100700.13;6310370;20;3558635;-59
2022/12/28 11:44:05;;;;;;;;;26.50;21.00;;;;;7.10;67.20;100716.03;6276381;20;2500391;-59
2022/12/28 11:46:39;;;;;;;;;18.00;17.00;;;;;7.10;67.71;100715.16;6273150;20;2491983;-59
2022/12/28 11:49:34;;;;;;;;;22.50;20.00;;;;;7.15;67.26;100714.09;6278689;20;2832549;-59
2022/12/28 11:52:26;;;;;;;;;16.00;12.00;;;;;7.31;67.14;100705.59;6278953;20;2795135;-60
2022/12/28 11:54:56;;;;;;;;;19.00;18.00;;;;;7.66;65.77;100697.31;6306973;20;2492098;-60
2022/12/28 11:57:43;;;;;;;;;25.50;21.00;;;;;7.28;67.80;100690.53;6273917;20;2500347;-60
2022/12/28 12:00:18;;;;;;;;;24.50;21.50;;;;;7.33;68.39;100680.59;6278751;20;2854472;-60